createdAt,value
2022-12-26T00:04:49.051Z,79.51
2022-12-26T00:09:50.420Z,79.35
2022-12-26T00:14:52.220Z,79.41
2022-12-26T00:19:53.970Z,79.36
2022-12-26T00:24:55.946Z,79.28
2022-12-26T00:29:57.776Z,79.22
2022-12-26T00:34:59.640Z,79.10
2022-12-26T00:40:01.475Z,79.20
2022-12-26T00:45:03.824Z,78.88
2022-12-26T00:50:12.298Z,79.05
2022-12-26T00:55:17.367Z,79.00
2022-12-26T01:00:19.219Z,79.02
2022-12-26T01:05:24.313Z,78.99
2022-12-26T01:10:26.975Z,79.08
2022-12-26T01:15:28.873Z,79.02
2022-12-26T01:20:30.900Z,78.94
2022-12-26T01:25:32.744Z,78.78
2022-12-26T01:30:34.634Z,78.73
2022-12-26T01:35:36.492Z,78.65
2022-12-26T01:40:43.505Z,78.44
2022-12-26T01:45:51.205Z,78.44
2022-12-26T01:50:58.348Z,78.13
2022-12-26T01:56:04.716Z,77.81
2022-12-26T02:01:08.395Z,77.85
2022-12-26T02:06:13.079Z,77.66
2022-12-26T02:11:24.073Z,77.80
2022-12-26T02:16:27.293Z,77.64
2022-12-26T02:21:32.136Z,77.47
2022-12-26T02:26:52.119Z,77.42
2022-12-26T02:32:10.014Z,77.59
2022-12-26T02:37:24.012Z,77.57
2022-12-26T02:42:39.103Z,77.55
2022-12-26T02:48:10.606Z,77.51
2022-12-26T02:53:47.017Z,77.58
2022-12-26T02:59:54.036Z,77.54
2022-12-26T03:05:18.325Z,77.24
2022-12-26T03:10:43.924Z,77.24
2022-12-26T03:16:13.972Z,77.19
2022-12-26T03:21:20.273Z,77.03
2022-12-26T03:26:41.114Z,77.00
2022-12-26T03:31:42.961Z,77.03
2022-12-26T03:37:20.487Z,76.84
2022-12-26T03:43:05.131Z,76.87
2022-12-26T03:48:47.577Z,76.83
2022-12-26T03:54:34.911Z,76.84
2022-12-26T04:00:17.338Z,77.02
2022-12-26T04:05:38.265Z,76.69
2022-12-26T04:11:02.664Z,76.88
2022-12-26T04:17:02.013Z,76.84
2022-12-26T04:22:26.507Z,76.74
2022-12-26T04:27:50.106Z,76.73
2022-12-26T04:33:16.407Z,76.74
2022-12-26T04:38:41.391Z,76.62
2022-12-26T04:44:03.297Z,76.39
2022-12-26T04:49:26.346Z,76.41
2022-12-26T04:54:28.608Z,76.42
2022-12-26T04:59:30.560Z,76.48
2022-12-26T05:04:51.049Z,76.46
2022-12-26T05:09:53.834Z,76.56
2022-12-26T05:14:55.772Z,76.53
2022-12-26T05:20:16.470Z,76.54
2022-12-26T05:25:47.462Z,76.33
2022-12-26T05:30:49.735Z,76.50
2022-12-26T05:40:53.489Z,76.64
2022-12-26T05:45:55.430Z,76.51
2022-12-26T05:51:01.642Z,76.21
2022-12-26T05:56:10.326Z,76.51
2022-12-26T06:01:15.083Z,76.55
2022-12-26T06:06:17.611Z,76.49
2022-12-26T06:16:23.092Z,76.40
2022-12-26T06:21:25.283Z,76.24
2022-12-26T06:26:27.196Z,76.41
2022-12-26T06:31:29.067Z,76.40
2022-12-26T06:36:30.881Z,76.32
2022-12-26T06:41:32.654Z,76.43
2022-12-26T06:46:34.610Z,76.37
2022-12-26T06:51:36.565Z,76.42
2022-12-26T06:56:38.647Z,76.32
2022-12-26T07:01:40.715Z,76.28
2022-12-26T07:06:42.894Z,76.17
2022-12-26T07:11:50.205Z,76.14
2022-12-26T07:16:52.215Z,76.12
2022-12-26T07:21:54.189Z,76.27
2022-12-26T07:26:56.068Z,76.34
2022-12-26T07:31:59.226Z,76.30
2022-12-26T07:37:01.108Z,76.38
2022-12-26T07:42:02.928Z,76.41
2022-12-26T07:47:05.220Z,76.46
2022-12-26T07:52:07.062Z,76.47
2022-12-26T07:57:46.379Z,76.29
2022-12-26T08:02:32.110Z,76.13
2022-12-26T08:07:34.013Z,76.27
2022-12-26T08:12:36.850Z,76.14
2022-12-26T08:17:38.949Z,76.19
2022-12-26T08:22:40.815Z,76.12
2022-12-26T08:27:42.912Z,76.06
2022-12-26T08:32:46.366Z,75.66
2022-12-26T08:37:48.485Z,75.56
2022-12-26T08:43:12.094Z,75.39
2022-12-26T08:48:12.387Z,75.02
2022-12-26T08:53:14.109Z,75.05
2022-12-26T08:58:16.103Z,74.82
2022-12-26T09:03:18.323Z,74.42
2022-12-26T09:08:20.167Z,74.19
2022-12-26T09:13:22.174Z,74.00
2022-12-26T09:18:24.011Z,73.78
2022-12-26T09:23:25.830Z,73.68
2022-12-26T09:28:27.801Z,73.32
2022-12-26T09:33:33.365Z,73.00
2022-12-26T09:38:36.622Z,73.00
2022-12-26T09:43:50.359Z,72.75
2022-12-26T09:49:01.849Z,72.44
2022-12-26T09:54:07.987Z,71.98
2022-12-26T09:59:24.437Z,71.77
2022-12-26T10:04:30.558Z,71.61
2022-12-26T10:09:44.799Z,71.64
2022-12-26T10:15:02.943Z,71.14
2022-12-26T10:20:44.293Z,71.25
2022-12-26T10:25:51.996Z,71.48
2022-12-26T10:30:57.929Z,71.79
2022-12-26T10:36:00.433Z,71.90
2022-12-26T10:41:14.725Z,72.22
2022-12-26T10:46:28.376Z,72.34
2022-12-26T10:51:30.687Z,72.13
2022-12-26T10:56:32.539Z,72.21
2022-12-26T11:01:47.304Z,72.25
2022-12-26T11:06:52.885Z,72.07
2022-12-26T11:11:54.873Z,72.18
2022-12-26T11:17:03.379Z,71.91
2022-12-26T11:22:28.641Z,71.68
2022-12-26T11:27:30.473Z,71.37
2022-12-26T11:32:32.630Z,71.24
2022-12-26T11:37:41.805Z,71.09
2022-12-26T11:42:48.231Z,70.99
2022-12-26T11:47:50.981Z,70.62
2022-12-26T11:52:55.546Z,70.63
2022-12-26T11:58:09.582Z,70.54
2022-12-26T12:03:16.134Z,70.58
2022-12-26T12:08:39.121Z,70.74
2022-12-26T12:13:44.108Z,70.67
2022-12-26T12:18:51.872Z,70.87
2022-12-26T12:24:04.123Z,70.86
2022-12-26T12:29:43.851Z,71.26
2022-12-26T12:35:19.614Z,71.22
2022-12-26T12:40:24.668Z,71.35
2022-12-26T12:45:59.024Z,71.33
2022-12-26T12:51:34.531Z,71.24
2022-12-26T12:56:42.459Z,71.38
2022-12-26T13:01:49.948Z,71.27
2022-12-26T13:07:33.279Z,71.45
2022-12-26T13:12:41.974Z,71.52
2022-12-26T13:17:55.186Z,71.55
2022-12-26T13:23:22.877Z,72.18
2022-12-26T13:28:31.960Z,73.00
2022-12-26T13:33:34.872Z,73.91
2022-12-26T13:38:58.653Z,74.51
2022-12-26T13:44:20.749Z,74.98
2022-12-26T13:49:27.269Z,74.88
2022-12-26T13:54:30.099Z,75.06
2022-12-26T13:59:58.112Z,75.36
2022-12-26T14:05:23.064Z,75.21
2022-12-26T14:11:02.091Z,75.02
2022-12-26T14:16:16.557Z,74.91
2022-12-26T14:21:27.202Z,74.71
2022-12-26T14:26:51.845Z,74.64
2022-12-26T14:32:12.283Z,74.42
2022-12-26T14:37:41.298Z,74.17
2022-12-26T14:43:12.919Z,73.89
2022-12-26T14:48:17.804Z,73.58
2022-12-26T14:53:28.370Z,73.60
2022-12-26T14:58:39.053Z,73.36
2022-12-26T15:04:05.498Z,73.22
2022-12-26T15:09:07.307Z,73.19
2022-12-26T15:14:09.210Z,73.33
2022-12-26T15:19:29.158Z,73.30
2022-12-26T15:25:17.662Z,73.40
2022-12-26T15:30:32.506Z,73.46
2022-12-26T15:35:36.573Z,73.69
2022-12-26T15:40:45.190Z,73.78
2022-12-26T15:46:14.478Z,73.93
2022-12-26T15:51:55.882Z,74.13
2022-12-26T15:57:03.874Z,74.00
2022-12-26T16:02:39.524Z,74.29
2022-12-26T16:07:52.663Z,74.36
2022-12-26T16:13:03.633Z,74.39
2022-12-26T16:18:32.929Z,74.58
2022-12-26T16:23:38.220Z,74.55
2022-12-26T16:28:44.557Z,74.47
2022-12-26T16:33:47.482Z,74.47
2022-12-26T16:38:50.551Z,74.49
2022-12-26T16:43:54.460Z,74.48
2022-12-26T16:49:00.371Z,74.40
2022-12-26T16:54:22.763Z,74.57
2022-12-26T16:59:28.357Z,74.60
2022-12-26T17:04:31.083Z,74.61
2022-12-26T17:09:43.605Z,74.87
2022-12-26T17:14:48.912Z,74.98
2022-12-26T17:19:54.351Z,75.00
2022-12-26T17:25:26.633Z,75.12
2022-12-26T17:30:31.773Z,75.06
2022-12-26T17:36:21.301Z,75.03
2022-12-26T17:41:01.550Z,74.92
2022-12-26T17:46:05.384Z,74.94
2022-12-26T17:51:12.487Z,74.92
2022-12-26T17:56:17.706Z,74.83
2022-12-26T18:01:21.930Z,74.83
2022-12-26T18:06:24.400Z,74.82
2022-12-26T18:11:26.299Z,74.76
2022-12-26T18:16:29.731Z,74.80
2022-12-26T18:21:31.571Z,74.73
2022-12-26T18:26:33.469Z,74.70
2022-12-26T18:31:35.372Z,74.67
2022-12-26T18:36:41.201Z,74.77
2022-12-26T18:41:43.618Z,74.69
2022-12-26T18:46:45.863Z,74.67
2022-12-26T18:51:47.645Z,74.53
2022-12-26T18:56:49.446Z,74.25
2022-12-26T19:01:51.437Z,74.00
2022-12-26T19:06:53.502Z,73.79
2022-12-26T19:11:55.405Z,73.75
2022-12-26T19:16:57.278Z,73.57
2022-12-26T19:21:59.315Z,73.59
2022-12-26T19:27:02.355Z,73.53
2022-12-26T19:32:04.562Z,73.58
2022-12-26T19:37:06.390Z,73.68
2022-12-26T19:42:08.168Z,73.57
2022-12-26T19:47:12.629Z,73.51
2022-12-26T19:52:15.109Z,73.62
2022-12-26T19:57:16.961Z,73.45
2022-12-26T20:02:18.971Z,73.32
2022-12-26T20:07:20.956Z,73.16
2022-12-26T20:12:22.978Z,72.97
2022-12-26T20:17:24.936Z,72.91
2022-12-26T20:22:27.270Z,73.06
2022-12-26T20:27:29.082Z,73.09
2022-12-26T20:32:30.854Z,73.63
2022-12-26T20:37:32.820Z,74.64
2022-12-26T20:42:34.582Z,75.02
2022-12-26T20:47:36.337Z,75.34
2022-12-26T20:52:38.104Z,75.77
2022-12-26T20:57:39.846Z,75.75
2022-12-26T21:02:41.670Z,75.80
2022-12-26T21:07:43.612Z,75.79
2022-12-26T21:12:45.871Z,75.80
2022-12-26T21:17:47.933Z,75.90
2022-12-26T21:22:49.753Z,76.01
2022-12-26T21:27:56.090Z,75.93
2022-12-26T21:33:00.911Z,76.12
2022-12-26T21:38:02.833Z,76.09
2022-12-26T21:43:04.719Z,76.00
2022-12-26T21:48:07.059Z,76.16
2022-12-26T21:53:10.280Z,76.11
2022-12-26T21:58:12.328Z,76.13
2022-12-26T22:03:32.608Z,76.16
2022-12-26T22:08:34.453Z,76.08
2022-12-26T22:13:42.348Z,75.95
2022-12-26T22:18:47.282Z,75.94
2022-12-26T22:23:50.722Z,75.81
2022-12-26T22:28:52.531Z,75.52
2022-12-26T22:34:05.381Z,75.46
2022-12-26T22:39:07.422Z,75.31
2022-12-26T22:44:09.942Z,75.14
2022-12-26T22:49:12.101Z,75.12
2022-12-26T22:54:14.624Z,74.93
2022-12-26T22:59:41.255Z,74.77
2022-12-26T23:04:38.686Z,74.84
2022-12-26T23:09:40.684Z,74.57
2022-12-26T23:14:42.627Z,74.60
2022-12-26T23:20:10.632Z,74.65
2022-12-26T23:25:12.544Z,74.43
2022-12-26T23:30:20.469Z,74.27
2022-12-26T23:35:22.876Z,74.02
2022-12-26T23:40:24.776Z,74.04
2022-12-26T23:45:26.639Z,74.03
2022-12-26T23:50:28.849Z,73.89
2022-12-26T23:55:30.651Z,73.59
